Weather observations for the past three days for
La Veta Mountain, La Veta Pass
Metric (Imperial)
Date Time (mdt) Wind (kph) Vis. (km) Weather Sky Cond. Temperature (ºC) Relative Humidity Wind Chill (°C) Heat Index (°C) Pressure Precipitation (cm)
Air Dwpt 6 hour altimeter (cm) sea level (mb) 1 hr 3 hr 6 hr
Max. Min.
06 16:55 W 11 16.09 Fair CLR 22 -2 20% 77.62 0.0
06 16:35 W 15 16.09 Fair CLR 22 -3 19% 77.62 0.0
06 16:15 W 17 G 26 16.09 Fair CLR 23 -4 16% 77.62 0.0
06 15:55 W 17 G 30 16.09 Fair CLR 23 -3 17% 77.65 0.0
06 15:35 W 19 G 28 16.09 Fair CLR 23 -4 16% 77.65 0.0
06 15:15 W 20 G 31 16.09 Fair CLR 22 -4 17% 77.67 0.0
06 14:55 W 20 G 31 16.09 Fair CLR 22 -4 17% 77.67 0.0
06 14:35 SW 15 G 30 16.09 Fair CLR 23 -5 15% 77.7 0.0
06 14:15 SW 15 G 26 16.09 Fair CLR 23 -5 15% 77.7 0.0
06 13:55 SW 13 16.09 Fair CLR 23 -9 11% 77.7 0.0
06 13:35 W 11 16.09 Fair CLR 22 -23 4% 77.72 0.0
06 13:15 SW 15 G 28 16.09 Fair CLR 21 -31 2% 77.75 0.0
06 12:55 W 9 16.09 Fair CLR 0 0 0% 77.75 0.0
06 12:35 W 11 16.09 Fair CLR 21 -36 1% 77.77 0.0
06 12:15 SW 15 16.09 Fair CLR 21 -30 2% 77.8 0.0
06 11:55 W 13 16.09 Fair CLR 20 -23 4% 77.8 0.0
06 11:35 W 17 16.09 Fair CLR 20 -8 14% 77.8 0.0
06 11:15 W 15 16.09 Fair CLR 18 -24 4% 77.83 0.0
06 10:55 W 15 16.09 Fair CLR 18 -29 3% 77.83 0.0
06 10:35 W 17 16.09 Partly Cloudy SCT100 16 -31 2% 77.83 0.0
06 10:15 W 17 16.09 Partly Cloudy SCT100 16 -29 3% 77.83 0.0
06 09:55 W 19 16.09 Partly Cloudy SCT100 16 -30 3% 77.8 0.0
06 09:35 W 20 G 28 16.09 Fair CLR 16 -32 2% 77.8 0.0
06 09:15 W 19 16.09 Fair CLR 16 -37 1% 77.77 0.0
06 08:55 W 22 16.09 Fair CLR 15 -24 5% 77.75 0.0
06 08:35 W 22 16.09 Fair CLR 15 -25 5% 77.75 0.0
06 08:15 W 24 16.09 Fair CLR 13 -24 6% 77.75 0.0
06 07:55 W 22 G 31 16.09 Fair CLR 13 -23 6% 77.72 0.0
06 07:35 W 24 16.09 Fair CLR 13 -23 6% 77.7 0.0
06 07:15 W 26 16.09 Fair CLR 11 -25 6% 77.7 0.0
06 06:55 W 26 16.09 Fair CLR 11 -35 2% 77.7 0.0
06 06:35 W 26 16.09 Fair CLR 13 -37 2% 77.67 0.0
06 06:15 W 26 G 33 16.09 Fair CLR 13 -35 2% 77.67 0.0
06 05:55 W 24 16.09 Fair CLR 13 -37 2% 77.67 0.0
06 05:35 W 26 16.09 Fair CLR 13 -37 2% 77.67 0.0
06 05:15 W 26 G 35 16.09 Fair CLR 13 -37 2% 77.67 0.0
06 04:55 W 28 16.09 Fair CLR 13 -37 2% 77.67 0.0
06 04:35 W 24 16.09 Fair CLR 13 -37 2% 77.67 0.0
06 04:15 W 26 G 35 16.09 Fair CLR 13 -37 2% 77.67 0.0
06 03:55 W 24 16.09 Fair CLR 13 -36 2% 77.67 0.0
06 03:35 W 26 G 33 16.09 Fair CLR 13 -32 3% 77.67 0.0
06 03:15 W 24 16.09 Fair CLR 12 -29 4% 77.67 0.0
06 02:55 W 26 16.09 Fair CLR 13 -29 4% 77.67 0.0
06 02:35 W 26 16.09 Fair CLR 13 -32 3% 77.67 0.0
06 02:15 W 26 16.09 Fair CLR 13 -32 3% 77.7 0.0
06 01:55 W 26 16.09 Fair CLR 13 -31 3% 77.7 0.0
06 01:35 W 22 16.09 Fair CLR 14 -33 2% 77.7 0.0
06 01:15 W 22 G 33 16.09 Fair CLR 15 -35 2% 77.7 0.0
06 00:55 W 22 16.09 Fair CLR 15 -32 2% 77.7 0.0
06 00:35 W 22 16.09 Fair CLR 15 -28 3% 77.72 0.0
06 00:15 W 20 16.09 Fair CLR 15 -29 3% 77.72 0.0
05 23:55 W 24 16.09 Fair CLR 15 -32 2% 77.72 0.0
05 23:35 W 20 16.09 Fair CLR 15 -29 3% 77.72 0.0
05 23:15 W 19 16.09 Fair CLR 15 -30 3% 77.75 0.0
05 22:55 W 20 16.09 Fair CLR 16 -30 3% 77.72 0.0
05 22:35 W 19 G 28 16.09 Fair CLR 16 -29 3% 77.72 0.0
05 22:15 SW 19 16.09 Fair CLR 16 -31 2% 77.75 0.0
05 21:55 SW 17 16.09 Fair CLR 16 -31 2% 77.75 0.0
05 21:35 SW 13 16.09 Fair CLR 16 -31 2% 77.75 0.0
05 21:15 SW 11 16.09 Fair CLR 16 -30 3% 77.75 0.0
05 20:55 SW 7 16.09 Fair CLR 16 -28 3% 77.75 0.0
05 20:35 Calm 16.09 Fair CLR 17 -31 2% 77.75 0.0
05 20:15 Calm 16.09 Fair CLR 16 -31 2% 77.72 0.0
05 19:55 NE 7 16.09 Partly Cloudy SCT070 17 -34 2% 77.7 0.0
05 19:35 E 6 16.09 Mostly Cloudy BKN070 17 -22 5% 77.7 0.0
05 19:15 NE 9 16.09 Mostly Cloudy BKN070 17 4 42% 77.7 0.0
05 18:55 NE 6 16.09 Partly Cloudy SCT070 18 4 40% 77.7 0.0
05 18:35 Calm 16.09 Partly Cloudy SCT070 20 4 35% 77.7 0.0
05 18:15 Calm 16.09 Partly Cloudy SCT070 20 5 38% 77.67 0.0
05 17:55 Calm 16.09 Fair CLR 20 5 38% 77.67 0.0
05 17:35 Calm 16.09 Partly Cloudy SCT120 20 5 38% 77.67 0.0
05 17:15 Calm 16.09 Mostly Cloudy BKN120 20 3 33% 77.67 0.0
05 16:55 Calm 16.09 Mostly Cloudy BKN120 21 2 29% 77.67 0.0
05 16:35 W 9 16.09 Partly Cloudy SCT110 21 2 29% 77.67 0.0
05 15:55 W 11 16.09 Overcast OVC095 21 1 27% 77.67 0.0
05 15:35 SW 13 16.09 Overcast BKN095 OVC120 22 1 25% 77.7 0.0
05 15:15 SW 17 16.09 Mostly Cloudy BKN120 22 0 23% 77.7 0.0
05 14:55 SW 15 16.09 Partly Cloudy SCT080 SCT095 22 0 23% 77.72 0.0
05 14:35 SW 19 16.09 Mostly Cloudy BKN095 23 0 22% 77.72 0.0
05 14:15 SW 19 16.09 Partly Cloudy SCT095 22 -16 7% 77.72 0.0
05 13:55 W 9 16.09 Partly Cloudy SCT075 SCT095 22 -23 4% 77.75 0.0
05 11:55 W 13 16.09 Fair CLR 20 2 30% 77.8 0.0
05 11:35 W 15 16.09 Fair CLR 18 5 43% 77.8 0.0
05 11:15 W 20 16.09 Fair CLR 18 5 43% 77.8 0.0
05 10:55 SW 26 G 35 16.09 Fair CLR 18 3 37% 77.8 0.0
05 10:35 W 20 16.09 Fair CLR 17 5 45% 77.77 0.0
05 10:15 W 24 16.09 Fair CLR 17 -21 6% 77.77 0.0
05 09:55 W 20 16.09 Fair CLR 16 0 34% 77.75 0.0
05 09:35 W 24 16.09 Fair CLR 15 -5 25% 77.75 0.0
05 09:15 W 26 16.09 Fair CLR 14 6 59% 77.75 0.0
05 08:55 W 22 16.09 Fair CLR 13 7 67% 77.75 0.0
05 08:35 W 24 16.09 Fair CLR 12 7 72% 77.75 0.0
05 08:15 W 22 G 30 16.09 Fair CLR 11 7 77% 77.72 0.0
05 07:55 W 20 16.09 Partly Cloudy SCT095 11 7 77% 77.72 0.0
05 07:35 W 22 16.09 Mostly Cloudy SCT070 BKN095 11 7 77% 77.72 0.0
05 07:15 W 20 16.09 Overcast OVC070 11 6 72% 77.75 0.0
05 06:55 W 20 16.09 Overcast BKN070 OVC090 11 6 72% 77.7 0.0
05 06:35 W 19 16.09 Overcast SCT070 BKN080 OVC100 11 6 72% 77.7 0.0
05 06:15 W 17 16.09 Overcast SCT080 OVC100 11 6 72% 77.67 0.0
05 05:55 W 19 16.09 Mostly Cloudy BKN100 11 6 72% 77.7 0.0
05 05:35 W 19 16.09 Mostly Cloudy SCT085 BKN100 11 5 67% 77.7 0.0
05 05:15 W 22 16.09 Partly Cloudy SCT100 11 6 72% 77.7 0.0
05 04:55 W 19 16.09 Mostly Cloudy BKN110 11 5 67% 77.7 0.0
05 04:35 W 22 16.09 Partly Cloudy SCT080 SCT100 11 4 62% 77.67 0.0
05 04:15 W 20 16.09 Mostly Cloudy BKN090 11 5 67% 77.67 0.0
05 03:55 W 22 16.09 Overcast SCT070 OVC090 11 -10 22% 77.67 0.0
05 03:35 W 24 16.09 Overcast SCT070 OVC090 11 -13 17% 77.67 0.0
05 03:15 W 22 16.09 Mostly Cloudy BKN090 12 -23 7% 77.67 0.0
05 02:55 W 26 16.09 Mostly Cloudy BKN090 12 -23 7% 77.67 0.0
05 02:35 W 24 16.09 Overcast OVC090 12 -24 6% 77.67 0.0
05 02:15 W 26 16.09 Overcast OVC090 12 -25 6% 77.67 0.0
05 01:55 W 24 G 33 16.09 Overcast OVC090 12 -23 7% 77.7 0.0
05 01:35 W 24 16.09 Overcast OVC090 12 -22 7% 77.7 0.0
05 01:15 W 22 16.09 Overcast OVC100 12 -23 7% 77.7 0.0
05 00:55 W 24 G 31 16.09 Overcast OVC100 13 -25 5% 77.7 0.0
05 00:35 W 24 G 35 16.09 Mostly Cloudy BKN100 13 3 51% 77.67 0.0
05 00:15 W 28 16.09 Fair CLR 13 3 51% 77.67 0.0
04 23:55 W 28 16.09 Fair CLR 14 -5 27% 77.67 0.0
04 23:35 W 24 16.09 Fair CLR 13 -25 5% 77.67 0.0
04 23:15 W 20 G 28 16.09 Fair CLR 13 -30 3% 77.7 0.0
04 22:55 W 15 16.09 Fair CLR 14 -33 2% 77.72 0.0
04 22:35 W 17 16.09 Fair CLR 15 -32 2% 77.7 0.0
04 22:15 W 15 16.09 Partly Cloudy SCT100 15 -33 2% 77.72 0.0
04 21:55 W 11 16.09 Mostly Cloudy BKN100 16 -35 2% 77.72 0.0
04 21:35 W 15 16.09 Mostly Cloudy BKN090 16 -33 2% 77.72 0.0
04 21:15 SW 11 16.09 Fair CLR 15 -28 3% 77.72 0.0
04 20:55 SW 9 16.09 Fair CLR 15 -28 3% 77.7 0.0
04 20:35 SW 11 16.09 Fair CLR 16 -30 3% 77.7 0.0
04 20:15 SW 11 16.09 Fair CLR 16 -3 27% 77.65 0.0
04 19:55 SW 11 16.09 Fair CLR 16 -38 1% 77.65 0.0
04 19:35 SW 11 16.09 Fair CLR 17 -40 1% 77.65 0.0
04 19:15 SW 7 16.09 Fair CLR 17 -37 1% 77.65 0.0
04 18:55 W 7 16.09 Fair CLR 0 0 0% 77.65 0.0
04 18:35 SW 11 16.09 Fair CLR 0 0 0% 77.65 0.0
04 18:15 SW 17 16.09 Fair CLR 0 0 0% 77.62 0.0
04 17:55 SW 19 G 28 16.09 Fair CLR 0 0 0% 77.62 0.0
04 17:15 SW 19 16.09 Light Rain SCT039 SCT055 SCT085 17 -35 2% 77.62 0.0
04 16:55 SW 20 G 31 16.09 Partly Cloudy SCT065 SCT075 SCT085 17 -37 1% 77.62 0.0
04 16:35 SW 15 16.09 Overcast BKN065 OVC075 0 0 0% 77.65 0.0
04 16:15 SW 17 16.09 Partly Cloudy SCT080 SCT085 SCT110 0 0 0% 77.62 0.0
04 15:55 SW 15 G 28 16.09 Mostly Cloudy SCT049 SCT075 BKN110 20 -37 1% 77.65 0.0
04 15:35 SW 17 G 26 16.09 Mostly Cloudy SCT037 SCT050 BKN085 18 -36 1% 77.65 0.0
04 15:15 SW 28 G 35 16.09 Light Rain SCT075 SCT080 BKN090 18 -35 1% 77.67 0.0
04 14:55 SW 22 G 35 16.09 Mostly Cloudy SCT065 BKN075 BKN090 20 -36 1% 77.67 0.0
04 14:35 SW 17 G 35 16.09 Mostly Cloudy SCT070 BKN100 21 -30 2% 77.67 0.0
04 14:15 W 17 G 26 16.09 Partly Cloudy SCT060 SCT075 SCT090 21 -35 1% 77.67 0.0
04 13:55 W 15 16.09 Mostly Cloudy SCT065 BKN090 21 -33 1% 77.7 0.0
04 13:35 W 15 G 26 16.09 Fair CLR 20 -31 2% 77.67 0.0
04 13:15 W 11 G 28 16.09 Fair CLR 20 4 35% 77.7 0.0
04 12:55 SW 17 G 26 16.09 Partly Cloudy SCT095 19 5 40% 77.7 0.0
04 12:35 W 17 G 28 16.09 Fair CLR 18 5 43% 77.72 0.0
04 12:15 W 19 G 26 16.09 Fair CLR 18 5 43% 77.75 0.0
04 11:55 W 17 G 28 16.09 Partly Cloudy SCT110 18 5 43% 77.75 0.0
04 11:35 W 20 G 28 16.09 Mostly Cloudy BKN100 17 5 45% 77.75 0.0
04 11:15 W 20 G 37 16.09 Mostly Cloudy BKN100 17 5 45% 77.72 0.0
04 10:55 W 28 G 35 16.09 Partly Cloudy SCT100 16 5 48% 77.7 0.0
04 10:35 W 20 G 28 16.09 Fair CLR 16 5 48% 77.72 0.0
04 10:15 W 22 G 30 16.09 Fair CLR 16 5 48% 77.72 0.0
04 09:55 W 15 16.09 Fair CLR 16 5 48% 77.72 0.0
04 09:35 W 15 G 28 16.09 Fair CLR 15 5 51% 77.7 0.0
04 09:15 W 17 G 28 16.09 Fair CLR 14 5 55% 77.7 0.0
04 08:55 W 13 G 28 16.09 Fair CLR 12 5 63% 77.67 0.0
04 08:35 W 19 16.09 Fair CLR 11 5 67% 77.65 0.0
04 08:15 W 24 16.09 Fair CLR 12 5 63% 77.62 0.0
04 07:55 W 28 G 35 16.09 Fair CLR 11 5 67% 77.6 0.0
04 07:35 W 26 16.09 Partly Cloudy SCT100 11 4 62% 77.57 0.0
04 07:15 W 28 16.09 Fair CLR 10 4 67% 7 77.52 0.0
04 06:55 W 31 16.09 Fair CLR 10 4 67% 7 77.52 0.0
04 06:35 W 30 16.09 Fair CLR 10 4 67% 7 77.52 0.0
04 06:15 W 28 16.09 Fair CLR 10 4 67% 7 77.5 0.0
04 05:55 W 24 G 33 16.09 Fair CLR 10 4 67% 7 77.5 0.0
04 05:35 W 26 16.09 Fair CLR 12 3 54% 77.5 0.0
04 05:15 W 26 16.09 Fair CLR 11 3 58% 77.5 0.0
04 04:55 W 15 16.09 Fair CLR 12 3 54% 77.52 0.0
04 04:35 W 24 G 37 16.09 Fair CLR 12 3 54% 77.47 0.0
04 04:15 W 28 G 33 16.09 Fair CLR 12 4 58% 77.44 0.0
04 03:55 W 26 G 33 16.09 Fair CLR 12 4 58% 77.44 0.0
04 03:35 W 24 G 31 16.09 Fair CLR 12 4 58% 77.47 0.0
04 03:15 W 26 G 33 16.09 Partly Cloudy SCT110 12 4 58% 77.44 0.0
04 02:55 W 24 G 31 16.09 Mostly Cloudy BKN110 12 4 58% 77.47 0.0
04 02:35 W 26 16.09 Overcast OVC100 12 3 54% 77.47 0.0
04 02:15 W 28 16.09 Overcast OVC100 12 3 54% 77.47 0.0
04 01:55 W 24 16.09 Mostly Cloudy BKN110 12 3 54% 77.47 0.0
04 01:35 W 22 16.09 Mostly Cloudy BKN110 12 3 54% 77.5 0.0
04 01:15 W 22 G 33 16.09 Partly Cloudy SCT110 12 3 54% 77.55 0.0
04 00:55 W 22 16.09 Partly Cloudy SCT120 12 3 54% 77.55 0.0
04 00:35 W 22 16.09 Partly Cloudy SCT110 12 3 54% 77.57 0.0
04 00:15 W 22 G 31 16.09 Fair CLR 13 3 51% 77.57 0.0
03 23:55 W 19 G 31 16.09 Fair CLR 13 3 51% 77.55 0.0
03 23:35 W 20 G 26 16.09 Fair CLR 13 2 47% 77.55 0.0
03 23:15 W 19 G 30 16.09 Fair CLR 13 1 44% 77.57 0.0
03 22:55 W 19 G 28 16.09 Fair CLR 13 -3 33% 77.57 0.0
03 22:35 W 15 16.09 Fair CLR 13 -30 3% 77.6 0.0
03 22:15 W 9 16.09 Fair CLR 14 -31 3% 77.62 0.0
03 21:55 W 13 16.09 Fair CLR 15 -32 2% 77.62 0.0
03 21:35 W 13 16.09 Partly Cloudy SCT075 15 -17 9% 77.62 0.0
03 21:15 W 11 16.09 Fair CLR 15 1 39% 77.62 0.0
03 20:55 W 11 16.09 Fair CLR 15 0 36% 77.6 0.0
03 20:35 W 11 16.09 Fair CLR 16 0 34% 77.6 0.0
03 20:15 W 11 16.09 Fair CLR 16 1 36% 77.57 0.0
03 19:55 W 15 16.09 Fair CLR 16 1 36% 77.57 0.0
03 19:35 W 13 16.09 Fair CLR 17 0 32% 77.55 0.0
03 19:15 W 13 16.09 Fair CLR 17 -37 1% 77.55 0.0
03 18:55 W 13 16.09 Fair CLR 0 0 0% 77.55 0.0
03 18:35 SW 17 G 28 16.09 Fair CLR 0 0 0% 77.55 0.0
03 18:15 SW 15 G 28 16.09 Fair CLR 0 0 0% 77.55 0.0
03 17:55 W 17 G 31 16.09 Fair CLR 0 0 0% 77.55 0.0
03 17:35 W 20 G 35 16.09 Fair CLR 0 0 0% 77.52 0.0
Date Time (mdt) Wind (kph) Vis. (km) Weather Sky Cond. Air Dwpt Max. Min. Relative Humidity Wind Chill (°C) Heat Index (°C) altimeter (cm) sea level (mb) 1 hr 3 hr 6 hr
6 hour
Temperature (ºC) Pressure Precipitation (cm)